createdAt,value
2022-11-18T00:08:25.859Z,5543.58527
2022-11-18T00:23:28.108Z,3417.87489
2022-11-18T00:38:30.657Z,3329.41225
2022-11-18T00:53:33.211Z,3345.15415
2022-11-18T01:08:35.745Z,3170.86883
2022-11-18T01:23:38.240Z,3985.91599
2022-11-18T01:38:40.479Z,3770.81995
2022-11-18T01:53:42.721Z,3335.29807
2022-11-18T02:08:45.306Z,2617.94686
2022-11-18T02:23:47.766Z,3415.8122
2022-11-18T02:38:50.007Z,4442.70067
2022-11-18T02:53:52.310Z,4854.20292
2022-11-18T03:08:54.882Z,6138.8291
2022-11-18T03:23:57.143Z,5705.64571
2022-11-18T03:38:59.900Z,5853.15464
2022-11-18T03:54:02.148Z,6616.0145
2022-11-18T04:09:04.405Z,5817.06119
2022-11-18T04:24:06.747Z,6424.51807
2022-11-18T04:39:09.365Z,7607.52737
2022-11-18T04:54:11.713Z,8479.40126
2022-11-18T05:09:13.985Z,9520.60609
2022-11-18T05:24:16.971Z,9826.38944
2022-11-18T05:39:19.710Z,8864.52675
2022-11-18T05:54:22.269Z,8416.35739
2022-11-18T06:09:24.522Z,9363.11054
2022-11-18T06:24:26.780Z,9938.54313
2022-11-18T06:39:29.092Z,11185.77135
2022-11-18T06:54:31.455Z,11411.29093
2022-11-18T07:09:33.954Z,11646.09115
2022-11-18T07:24:36.668Z,12119.91498
2022-11-18T07:39:38.911Z,12508.28794
2022-11-18T07:54:41.296Z,12535.99179
2022-11-18T08:09:43.556Z,12535.99179
2022-11-18T08:24:45.908Z,12535.99179
2022-11-18T08:39:48.192Z,12535.99179
2022-11-18T08:54:50.622Z,12535.99179
2022-11-18T09:09:53.173Z,12535.99179
2022-11-18T09:24:55.395Z,12535.99179
2022-11-18T09:39:58.216Z,12535.99179
2022-11-18T09:55:00.900Z,12535.99179
2022-11-18T10:10:03.232Z,12535.99179
2022-11-18T10:25:05.762Z,12535.99179
2022-11-18T10:40:08.728Z,12535.99179
2022-11-18T10:55:11.378Z,12535.99179
2022-11-18T11:10:13.780Z,12535.99179
2022-11-18T11:25:16.692Z,12535.99179
2022-11-18T11:40:19.076Z,12535.99179
2022-11-18T11:55:21.310Z,12535.99179
2022-11-18T12:10:23.726Z,12535.99179
2022-11-18T12:25:26.026Z,12535.99179
2022-11-18T12:40:28.539Z,12535.99179
2022-11-18T12:55:31.300Z,12535.99179
2022-11-18T13:10:33.637Z,12535.99179
2022-11-18T13:25:35.830Z,12535.99179
2022-11-18T13:40:38.224Z,12535.99179
2022-11-18T13:55:40.568Z,12535.99179
2022-11-18T14:10:42.888Z,12535.99179
2022-11-18T14:25:45.171Z,12535.99179
2022-11-18T14:40:47.717Z,12535.99179
2022-11-18T14:55:49.988Z,12535.99179
2022-11-18T15:10:52.214Z,12535.99179
2022-11-18T15:25:54.478Z,12535.99179
2022-11-18T15:40:56.929Z,12535.99179
2022-11-18T15:55:59.134Z,12535.99179
2022-11-18T16:11:01.397Z,12535.99179
2022-11-18T16:26:03.839Z,12535.99179
2022-11-18T16:41:06.235Z,12535.99179
2022-11-18T16:56:08.486Z,12535.99179
2022-11-18T17:11:10.701Z,12535.99179
2022-11-18T17:26:13.014Z,12535.99179
2022-11-18T17:41:15.234Z,12535.99179
2022-11-18T17:56:17.617Z,12535.99179
2022-11-18T18:11:21.451Z,12535.99179
2022-11-18T18:26:28.284Z,12535.99179
2022-11-18T18:41:33.626Z,12535.99179
2022-11-18T18:56:35.872Z,12535.99179
2022-11-18T19:11:38.100Z,12535.99179
2022-11-18T19:26:40.389Z,12535.99179
2022-11-18T19:41:42.641Z,12535.99179
2022-11-18T19:56:44.830Z,12535.99179
2022-11-18T20:11:47.103Z,12535.99179
2022-11-18T20:26:49.434Z,12535.99179
2022-11-18T20:41:51.662Z,12535.99179
2022-11-18T20:56:53.907Z,12535.99179
2022-11-18T21:11:56.172Z,12535.99179
2022-11-18T21:26:58.459Z,12535.99179
2022-11-18T21:42:00.645Z,12535.99179
2022-11-18T21:57:02.861Z,12535.99179
2022-11-18T22:12:05.095Z,12535.99179
2022-11-18T22:27:11.306Z,12535.99179
2022-11-18T22:42:13.979Z,12535.99179
2022-11-18T22:57:16.226Z,12535.99179
2022-11-18T23:12:18.427Z,12535.99179
2022-11-18T23:27:20.655Z,12535.99179
2022-11-18T23:42:22.905Z,10152.46693
2022-11-18T23:57:25.166Z,7496.68923
